createdAt,value
2022-10-11T00:04:09.474Z,1025.299
2022-10-11T00:09:04.798Z,1025.398
2022-10-11T00:14:04.806Z,1025.425
2022-10-11T00:19:08.084Z,1025.459
2022-10-11T00:24:08.053Z,1025.537
2022-10-11T00:29:06.280Z,1025.505
2022-10-11T00:34:20.963Z,1025.518
2022-10-11T00:39:04.780Z,1025.557
2022-10-11T00:44:23.053Z,1025.561
2022-10-11T00:49:07.476Z,1025.589
2022-10-11T00:54:06.063Z,1025.592
2022-10-11T00:59:06.994Z,1025.583
2022-10-11T01:04:10.982Z,1025.615
2022-10-11T01:09:08.380Z,1025.654
2022-10-11T01:14:11.631Z,1025.747
2022-10-11T01:19:15.147Z,1025.698
2022-10-11T01:24:36.935Z,1025.693
2022-10-11T01:29:11.480Z,1025.727
2022-10-11T01:34:17.344Z,1025.73
2022-10-11T01:39:13.703Z,1025.783
2022-10-11T01:44:06.674Z,1025.896
2022-10-11T01:49:05.488Z,1025.885
2022-10-11T01:54:16.683Z,1025.931
2022-10-11T01:59:16.582Z,1025.967
2022-10-11T02:04:20.100Z,1025.981
2022-10-11T02:09:11.334Z,1025.95
2022-10-11T02:14:08.957Z,1025.94
2022-10-11T02:19:08.198Z,1025.872
2022-10-11T02:24:06.987Z,1025.881
2022-10-11T02:29:07.220Z,1025.878
2022-10-11T02:34:15.298Z,1025.854
2022-10-11T02:39:08.497Z,1025.896
2022-10-11T02:44:08.078Z,1025.858
2022-10-11T02:49:04.920Z,1025.801
2022-10-11T02:54:04.536Z,1025.899
2022-10-11T02:59:04.460Z,1025.906
2022-10-11T03:04:09.200Z,1025.952
2022-10-11T03:09:04.348Z,1025.963
2022-10-11T03:14:04.483Z,1025.94
2022-10-11T03:19:04.555Z,1026.001
2022-10-11T03:24:04.245Z,1026.003
2022-10-11T03:29:04.322Z,1026.029
2022-10-11T03:34:09.883Z,1026.069
2022-10-11T03:39:04.666Z,1026.132
2022-10-11T03:44:04.370Z,1026.103
2022-10-11T03:49:04.412Z,1026.136
2022-10-11T03:54:04.277Z,1026.135
2022-10-11T03:59:07.390Z,1026.19
2022-10-11T04:04:12.146Z,1026.169
2022-10-11T04:09:04.820Z,1026.206
2022-10-11T04:14:05.185Z,1026.29
2022-10-11T04:19:04.821Z,1026.216
2022-10-11T04:24:04.373Z,1026.308
2022-10-11T04:29:04.723Z,1026.334
2022-10-11T04:34:09.098Z,1026.373
2022-10-11T04:39:04.365Z,1026.378
2022-10-11T04:44:04.392Z,1026.439
2022-10-11T04:49:04.506Z,1026.438
2022-10-11T04:54:04.452Z,1026.407
2022-10-11T04:59:04.690Z,1026.433
2022-10-11T05:04:09.367Z,1026.457
2022-10-11T05:09:04.451Z,1026.467
2022-10-11T05:14:04.417Z,1026.544
2022-10-11T05:19:04.474Z,1026.652
2022-10-11T05:24:04.361Z,1026.646
2022-10-11T05:29:04.495Z,1026.683
2022-10-11T05:34:09.136Z,1026.696
2022-10-11T05:39:07.472Z,1026.719
2022-10-11T05:44:04.266Z,1026.719
2022-10-11T05:49:04.280Z,1026.741
2022-10-11T05:54:04.284Z,1026.767
2022-10-11T05:59:04.787Z,1026.838
2022-10-11T06:04:10.039Z,1026.907
2022-10-11T06:09:06.665Z,1026.964
2022-10-11T06:14:04.519Z,1027.049
2022-10-11T06:19:04.458Z,1027.04
2022-10-11T06:24:04.462Z,1027.107
2022-10-11T06:29:04.653Z,1027.12
2022-10-11T06:34:09.520Z,1027.175
2022-10-11T06:39:06.545Z,1027.226
2022-10-11T06:44:05.677Z,1027.224
2022-10-11T06:49:04.180Z,1027.318
2022-10-11T06:54:05.093Z,1027.325
2022-10-11T06:59:04.295Z,1027.39
2022-10-11T07:04:12.306Z,1027.455
2022-10-11T07:09:04.284Z,1027.481
2022-10-11T07:14:07.321Z,1027.559
2022-10-11T07:19:04.946Z,1027.616
2022-10-11T07:24:04.745Z,1027.676
2022-10-11T07:29:06.207Z,1027.616
2022-10-11T07:34:12.041Z,1027.683
2022-10-11T07:39:04.268Z,1027.711
2022-10-11T07:44:04.279Z,1027.748
2022-10-11T07:49:04.758Z,1027.708
2022-10-11T07:54:07.155Z,1027.713
2022-10-11T07:59:05.203Z,1027.783
2022-10-11T08:04:10.170Z,1027.803
2022-10-11T08:09:05.467Z,1027.829
2022-10-11T08:14:08.194Z,1027.837
2022-10-11T08:19:04.364Z,1027.898
2022-10-11T08:24:05.164Z,1027.955
2022-10-11T08:29:05.089Z,1027.977
2022-10-11T08:34:09.226Z,1028.026
2022-10-11T08:39:04.498Z,1027.997
2022-10-11T08:44:15.710Z,1028.046
2022-10-11T08:49:05.347Z,1028.022
2022-10-11T08:54:08.069Z,1028.077
2022-10-11T08:59:06.244Z,1028.055
2022-10-11T09:04:10.194Z,1028.109
2022-10-11T09:09:17.254Z,1028.097
2022-10-11T09:14:11.271Z,1028.117
2022-10-11T09:19:19.740Z,1028.126
2022-10-11T09:24:17.288Z,1028.143
2022-10-11T09:29:10.244Z,1028.135
2022-10-11T09:34:14.874Z,1028.186
2022-10-11T09:39:11.349Z,1028.19
2022-10-11T09:44:04.376Z,1028.158
2022-10-11T09:49:04.954Z,1028.211
2022-10-11T09:54:06.078Z,1028.232
2022-10-11T09:59:23.254Z,1028.193
2022-10-11T10:04:21.599Z,1028.18
2022-10-11T10:09:14.567Z,1028.16
2022-10-11T10:14:04.276Z,1028.159
2022-10-11T10:19:04.701Z,1028.15
2022-10-11T10:24:06.332Z,1028.188
2022-10-11T10:29:05.554Z,1028.142
2022-10-11T10:34:05.104Z,1028.199
2022-10-11T10:39:08.316Z,1028.182
2022-10-11T10:44:04.483Z,1028.174
2022-10-11T10:49:52.986Z,1028.158
2022-10-11T10:54:09.023Z,1028.173
2022-10-11T10:59:15.390Z,1028.131
2022-10-11T11:04:11.199Z,1028.089
2022-10-11T11:09:09.976Z,1028.072
2022-10-11T11:14:07.682Z,1028.087
2022-10-11T11:19:08.734Z,1028.09
2022-10-11T11:24:08.975Z,1028.081
2022-10-11T11:29:27.279Z,1028
2022-10-11T11:34:09.283Z,1028.009
2022-10-11T11:39:06.433Z,1027.957
2022-10-11T11:44:06.550Z,1027.927
2022-10-11T11:49:09.679Z,1027.891
2022-10-11T11:54:09.134Z,1027.828
2022-10-11T11:59:10.216Z,1027.84
2022-10-11T12:04:06.978Z,1027.798
2022-10-11T12:09:10.830Z,1027.776
2022-10-11T12:14:04.337Z,1027.807
2022-10-11T12:19:08.616Z,1027.778
2022-10-11T12:24:04.872Z,1027.744
2022-10-11T12:29:15.366Z,1027.746
2022-10-11T12:34:24.004Z,1027.688
2022-10-11T12:39:15.104Z,1027.685
2022-10-11T12:44:17.318Z,1027.649
2022-10-11T12:49:09.718Z,1027.701
2022-10-11T12:54:28.198Z,1027.699
2022-10-11T12:59:10.115Z,1027.631
2022-10-11T13:04:08.811Z,1027.55
2022-10-11T13:09:06.546Z,1027.564
2022-10-11T13:14:09.239Z,1027.504
2022-10-11T13:19:04.510Z,1027.482
2022-10-11T13:24:07.021Z,1027.442
2022-10-11T13:29:04.221Z,1027.471
2022-10-11T13:34:05.256Z,1027.426
2022-10-11T13:39:05.080Z,1027.387
2022-10-11T13:44:04.490Z,1027.34
2022-10-11T13:49:06.459Z,1027.361
2022-10-11T13:54:05.133Z,1027.344
2022-10-11T13:59:04.316Z,1027.359
2022-10-11T14:04:06.253Z,1027.33
2022-10-11T14:09:04.083Z,1027.354
2022-10-11T14:14:04.398Z,1027.376
2022-10-11T14:19:15.331Z,1027.403
2022-10-11T14:24:05.315Z,1027.401
2022-10-11T14:29:05.268Z,1027.405
2022-10-11T14:34:04.340Z,1027.371
2022-10-11T14:39:04.169Z,1027.32
2022-10-11T14:44:04.223Z,1027.217
2022-10-11T14:49:06.250Z,1027.208
2022-10-11T14:54:04.130Z,1027.219
2022-10-11T14:59:04.159Z,1027.249
2022-10-11T15:04:04.408Z,1027.221
2022-10-11T15:09:04.636Z,1027.134
2022-10-11T15:14:04.495Z,1027.157
2022-10-11T15:19:04.294Z,1027.132
2022-10-11T15:24:04.190Z,1027.113
2022-10-11T15:29:07.068Z,1027.16
2022-10-11T15:34:04.215Z,1027.145
2022-10-11T15:39:04.284Z,1027.125
2022-10-11T15:44:04.041Z,1027.16
2022-10-11T15:49:06.744Z,1027.148
2022-10-11T15:54:04.216Z,1027.088
2022-10-11T15:59:04.267Z,1027.104
2022-10-11T16:04:04.513Z,1027.104
2022-10-11T16:09:04.252Z,1027.061
2022-10-11T16:14:04.656Z,1027.056
2022-10-11T16:19:04.224Z,1027.156
2022-10-11T16:24:04.617Z,1027.125
2022-10-11T16:29:04.419Z,1027.137
2022-10-11T16:34:04.707Z,1027.134
2022-10-11T16:39:05.399Z,1027.133
2022-10-11T16:44:04.296Z,1027.125
2022-10-11T16:49:05.209Z,1027.147
2022-10-11T16:54:04.422Z,1027.123
2022-10-11T16:59:04.590Z,1027.148
2022-10-11T17:04:04.444Z,1027.16
2022-10-11T17:09:04.657Z,1027.142
2022-10-11T17:14:05.647Z,1027.245
2022-10-11T17:19:04.580Z,1027.189
2022-10-11T17:24:04.201Z,1027.204
2022-10-11T17:29:04.280Z,1027.191
2022-10-11T17:34:05.494Z,1027.209
2022-10-11T17:39:04.847Z,1027.167
2022-10-11T17:44:04.208Z,1027.209
2022-10-11T17:49:04.926Z,1027.129
2022-10-11T17:54:04.087Z,1027.196
2022-10-11T17:59:04.044Z,1027.153
2022-10-11T18:04:05.801Z,1027.058
2022-10-11T18:09:04.855Z,1027.078
2022-10-11T18:14:04.955Z,1027.116
2022-10-11T18:19:05.745Z,1027.12
2022-10-11T18:24:07.886Z,1027.16
2022-10-11T18:29:05.049Z,1027.168
2022-10-11T18:34:04.472Z,1027.144
2022-10-11T18:39:05.199Z,1027.146
2022-10-11T18:44:04.749Z,1027.093
2022-10-11T18:49:08.450Z,1027.112
2022-10-11T18:54:06.300Z,1027.094
2022-10-11T18:59:04.713Z,1027.076
2022-10-11T19:04:05.139Z,1027.083
2022-10-11T19:09:05.762Z,1027.08
2022-10-11T19:14:06.734Z,1027.11
2022-10-11T19:19:04.237Z,1027.127
2022-10-11T19:24:04.322Z,1027.081
2022-10-11T19:29:05.633Z,1027.141
2022-10-11T19:34:04.293Z,1027.134
2022-10-11T19:39:06.811Z,1027.092
2022-10-11T19:44:04.052Z,1027.107
2022-10-11T19:49:07.081Z,1027.063
2022-10-11T19:54:07.411Z,1027.08
2022-10-11T19:59:06.124Z,1027.037
2022-10-11T20:04:04.724Z,1027.103
2022-10-11T20:09:27.987Z,1027.079
2022-10-11T20:14:04.103Z,1027.104
2022-10-11T20:19:04.518Z,1027.152
2022-10-11T20:24:08.188Z,1027.148
2022-10-11T20:29:04.186Z,1027.202
2022-10-11T20:34:07.539Z,1027.166
2022-10-11T20:39:04.130Z,1027.112
2022-10-11T20:44:04.727Z,1027.068
2022-10-11T20:49:05.074Z,1027.091
2022-10-11T20:54:04.479Z,1027.093
2022-10-11T20:59:04.796Z,1027.082
2022-10-11T21:04:05.216Z,1027.093
2022-10-11T21:09:08.514Z,1027.106
2022-10-11T21:14:04.914Z,1027.091
2022-10-11T21:19:06.058Z,1027.069
2022-10-11T21:24:05.801Z,1027.051
2022-10-11T21:29:03.998Z,1026.995
2022-10-11T21:34:07.187Z,1027.004
2022-10-11T21:39:05.332Z,1027.084
2022-10-11T21:44:05.298Z,1027.088
2022-10-11T21:50:29.939Z,1027.064
2022-10-11T21:59:51.258Z,1027.042
2022-10-11T23:02:39.253Z,1026.806
2022-10-11T23:07:29.699Z,1026.848
2022-10-11T23:12:30.985Z,1026.84
2022-10-11T23:17:32.531Z,1026.815
2022-10-11T23:22:31.289Z,1026.833
2022-10-11T23:27:29.505Z,1026.792
2022-10-11T23:32:29.917Z,1026.792
2022-10-11T23:37:31.362Z,1026.786
2022-10-11T23:42:28.700Z,1026.717
2022-10-11T23:47:27.387Z,1026.706
2022-10-11T23:52:32.337Z,1026.646
2022-10-11T23:58:01.641Z,1026.57
